Capitol Logistics 232


KPHX
Phoenix Sky Harbor International Airport
Phoenix, Arizona, US
KSMF
Sacramento International Airport
Sacramento, California, US

Activity Log

Date Flight Route Aircraft Duration
09/09/2020 CPX232 ZEPER1 SISIE DOVEE BTY KENNO DONNR SLMMR3 B763 1h 42m
07/21/2020 CPX232 ZEPER1 SISIE DOVEE BTY KENNO DONNR SLMMR3 B763 2h 10m
05/18/2020 CPX232 KPHX/25R CHILY4 IGM TACUS DONNR SLMMR3 KSMF/ZIMAM.R16RZ B763 1h 49m
02/24/2020 CPX232 KPHX/07L CHILY4 IGM TACUS DONNR SLMMR3 KSMF/I34L B763 2h 04m
02/27/2019 CPX232 ZEPER1 SISIE DOVEE BTY KENNO DONNR SLMMR3 B763 2h 06m

Route Details

Aircraft Information
Primary: Boeing 767-300BDSF
Backup: Not Available
Route Data
Distance: 562nm
Sched. Duration: 1h 50m
Avg. Duration: 1h 82m (+33m)
Times Flown: 5
Recm'd Route: ZEPER1 SISIE DOVEE BTY KENNO DONNR SLMMR3
Planned Altitude: 36,000ft
Origin Wx: KPHX 290351Z 11004KT 10SM CLR 18/M03 A3003 RMK AO2 SLP160 T01781028
Dest. Wx: KSMF 290353Z 00000KT 9SM CLR 14/02 A3004 RMK AO2 SLP170 T01390017
Notes:

Financial History
Total Freight: 526,028lbs
Average Load: 105,206lbs/flt
Fuel Used: 100,664lbs
Avg. Fuel Used: 20,133lbs/flt
Fuel Expense: $81,538
Avg. Fuel Expense: $16,308
Avg. Fuel Cost: $0.81/lbs
Total Gross Income: $723,101
Pilot Pay: $1,215
Total Expenses: $78,355
Total Revenue: $560,888
Average Revenue: $144,620.19